Naxos — SVBZ8 — position and weather

sailwx.info

Track history (hours):
 
Tides and Currents Weather Stations Pressure Air Temp Water Temp Dewpoint Dewpoint Depression Visibility Wind Speed Wind Dir Waves Ship Positions

Naxos

Last reported at 2018-Jul-18 14:29 UTC. Time now 2018-Jul-19 15:05 UTC.
Position N 37°11' E 025°49'.

Length 90 m; draft 6.2 m.

Type: Tanker. MMSI: 241338000.

Date/timePositionNaut miles runAvg speedWind from/ knotsBaromVisibWave heightAir tempDewpointWater temp
2018-Jul-18 14:29N 37°11' E 025°49'11 9.9
2018-Jul-18 13:23N 37°14' E 025°36'4 9.8
2018-Jul-18 13:00N 37°15' E 025°31'5 9.9
2018-Jul-18 12:30N 37°16' E 025°25'5 9.5
2018-Jul-18 12:00N 37°16' E 025°19'5 9.3
2018-Jul-18 11:30N 37°17' E 025°13'9 9.4
2018-Jul-18 10:30N 37°18' E 025°02'  
2018-Jul-11 19:54N 37°15' E 023°41'410.2
2018-Jul-11 19:30N 37°19' E 023°41'510.1
2018-Jul-11 18:58N 37°24' E 023°42'5 9.8
2018-Jul-11 18:30N 37°29' E 023°43'5 9.7
2018-Jul-11 18:00N 37°34' E 023°43'5 9.5
2018-Jul-11 17:30N 37°38' E 023°43'5 9.7
2018-Jul-11 17:00N 37°43' E 023°40'5 9.7
2018-Jul-11 16:30N 37°47' E 023°37'4 8.5
2018-Jul-11 16:00N 37°49' E 023°33'4 8.4
2018-Jul-11 15:30N 37°50' E 023°28'5 9.8
2018-Jul-11 15:00N 37°51' E 023°22'5 9.8
2018-Jul-11 14:30N 37°52' E 023°16'510.0
2018-Jul-11 14:00N 37°54' E 023°09'4 7.0
2018-Jul-11 13:30N 37°55' E 023°05'0 0.0
2018-Jul-11 12:58N 37°55' E 023°05'0 0.0
2018-Jul-11 12:28N 37°55' E 023°05'0 0.0
2018-Jul-11 11:58N 37°55' E 023°05'0 0.0
2018-Jul-11 11:28N 37°55' E 023°05'0 0.0
2018-Jul-11 10:58N 37°55' E 023°05'0 0.0
2018-Jul-11 10:28N 37°55' E 023°05'0 0.0
2018-Jul-11 09:58N 37°55' E 023°05'0 0.0
2018-Jul-11 09:28N 37°55' E 023°05'0 0.0
2018-Jul-11 08:58N 37°55' E 023°05'0 0.0
2018-Jul-11 08:28N 37°55' E 023°05'0 0.0
2018-Jul-11 07:58N 37°55' E 023°05'0 0.0
2018-Jul-11 07:28N 37°55' E 023°05'0 0.0
2018-Jul-11 06:58N 37°55' E 023°05'0 0.0
2018-Jul-11 06:28N 37°55' E 023°05'0 0.0
2018-Jul-11 05:58N 37°55' E 023°05'0 0.0
2018-Jul-11 05:28N 37°55' E 023°05'0 0.0
2018-Jul-11 04:58N 37°55' E 023°05'0 0.0
2018-Jul-11 04:28N 37°55' E 023°05'0 0.0
2018-Jul-11 03:58N 37°55' E 023°05'0 0.0
2018-Jul-11 03:28N 37°55' E 023°05'0 0.0
2018-Jul-11 02:58N 37°55' E 023°05'0 0.0
2018-Jul-11 02:28N 37°55' E 023°05'0 0.0
2018-Jul-11 01:58N 37°55' E 023°05'0 0.0
2018-Jul-11 01:30N 37°55' E 023°05'0 1.0
2018-Jul-11 01:00N 37°55' E 023°06'0 0.1
2018-Jul-11 00:30N 37°55' E 023°06'0 0.1
2018-Jul-11 00:00N 37°55' E 023°06'0 0.0
2018-Jul-10 23:30N 37°55' E 023°06'0 0.1
2018-Jul-10 23:00N 37°55' E 023°06'0 0.0
2018-Jul-10 22:30N 37°55' E 023°06'0 0.0
2018-Jul-10 22:00N 37°55' E 023°06'0 0.0
2018-Jul-10 21:30N 37°55' E 023°06'0 0.0
2018-Jul-10 21:00N 37°55' E 023°06'0 0.0
2018-Jul-10 20:30N 37°55' E 023°06'0 0.0
2018-Jul-10 20:00N 37°55' E 023°06'0 0.0
2018-Jul-10 19:30N 37°55' E 023°06'0 0.0
2018-Jul-10 19:00N 37°55' E 023°06'0 0.0
2018-Jul-10 18:30N 37°55' E 023°06'0 0.0
2018-Jul-10 18:00N 37°55' E 023°06'0 0.0
2018-Jul-10 17:30N 37°55' E 023°06'0 0.0
2018-Jul-10 17:00N 37°55' E 023°06'0 0.3
2018-Jul-10 16:30N 37°55' E 023°06'0 0.1
2018-Jul-10 16:00N 37°55' E 023°06'0 0.0
2018-Jul-10 15:30N 37°55' E 023°06'0 0.1
2018-Jul-10 15:00N 37°55' E 023°06'0 0.0
2018-Jul-10 14:30N 37°55' E 023°06'0 0.0
2018-Jul-10 14:00N 37°55' E 023°06'0 0.1
2018-Jul-10 13:30N 37°55' E 023°06'0 0.0
2018-Jul-10 13:00N 37°55' E 023°06'0 0.0
2018-Jul-10 12:30N 37°55' E 023°06'0 0.1
2018-Jul-10 12:00N 37°55' E 023°06'0 0.1
2018-Jul-10 11:30N 37°55' E 023°06'0 0.0
2018-Jul-10 11:00N 37°55' E 023°06'0 0.0
2018-Jul-10 10:30N 37°55' E 023°06'0 0.0
2018-Jul-10 10:00N 37°55' E 023°06'0 0.0
2018-Jul-10 09:30N 37°55' E 023°06'0 0.0
2018-Jul-10 09:00N 37°55' E 023°06'2 3.8
2018-Jul-10 08:30N 37°54' E 023°08'5 9.7
2018-Jul-10 08:00N 37°53' E 023°14'510.4
2018-Jul-10 07:30N 37°53' E 023°21'510.8
2018-Jul-10 07:00N 37°51' E 023°28'510.7
2018-Jul-10 06:30N 37°51' E 023°34'4 8.9
2018-Jul-10 06:00N 37°49' E 023°39'510.7
2018-Jul-10 05:30N 37°45' E 023°43'5010.1
2018-Jul-10 00:32N 37°33' E 024°44'010.3
2018-Jul-10 00:30N 37°33' E 024°44'510.1
2018-Jul-10 00:00N 37°33' E 024°51'610.5
2018-Jul-09 23:28N 37°32' E 024°58'510.4
2018-Jul-09 23:00N 37°31' E 025°04'510.5
2018-Jul-09 22:30N 37°30' E 025°10'510.0
2018-Jul-09 22:00N 37°31' E 025°16'510.2
2018-Jul-09 21:30N 37°32' E 025°23'5 9.7
2018-Jul-09 21:00N 37°34' E 025°29'5 9.8
2018-Jul-09 20:30N 37°35' E 025°34'610.0
2018-Jul-09 19:57N 37°37' E 025°41'  
Track history (hours):
 
Tides and Currents Weather Stations Pressure Air Temp Water Temp Dewpoint Dewpoint Depression Visibility Wind Speed Wind Dir Waves Ship Positions

Naxos

Last reported at 2018-Jul-18 14:29 UTC. Time now 2018-Jul-19 15:05 UTC.
Position N 37°11' E 025°49'.

Length 90 m; draft 6.2 m.

Type: Tanker. MMSI: 241338000.

Date/timePositionNaut miles runAvg speedWind from/ knotsBaromVisibWave heightAir tempDewpointWater temp
2018-Jul-18 14:29N 37°11' E 025°49'11 9.9
2018-Jul-18 13:23N 37°14' E 025°36'4 9.8
2018-Jul-18 13:00N 37°15' E 025°31'5 9.9
2018-Jul-18 12:30N 37°16' E 025°25'5 9.5
2018-Jul-18 12:00N 37°16' E 025°19'5 9.3
2018-Jul-18 11:30N 37°17' E 025°13'9 9.4
2018-Jul-18 10:30N 37°18' E 025°02'  
2018-Jul-11 19:54N 37°15' E 023°41'410.2
2018-Jul-11 19:30N 37°19' E 023°41'510.1
2018-Jul-11 18:58N 37°24' E 023°42'5 9.8
2018-Jul-11 18:30N 37°29' E 023°43'5 9.7
2018-Jul-11 18:00N 37°34' E 023°43'5 9.5
2018-Jul-11 17:30N 37°38' E 023°43'5 9.7
2018-Jul-11 17:00N 37°43' E 023°40'5 9.7
2018-Jul-11 16:30N 37°47' E 023°37'4 8.5
2018-Jul-11 16:00N 37°49' E 023°33'4 8.4
2018-Jul-11 15:30N 37°50' E 023°28'5 9.8
2018-Jul-11 15:00N 37°51' E 023°22'5 9.8
2018-Jul-11 14:30N 37°52' E 023°16'510.0
2018-Jul-11 14:00N 37°54' E 023°09'4 7.0
2018-Jul-11 13:30N 37°55' E 023°05'0 0.0
2018-Jul-11 12:58N 37°55' E 023°05'0 0.0
2018-Jul-11 12:28N 37°55' E 023°05'0 0.0
2018-Jul-11 11:58N 37°55' E 023°05'0 0.0
2018-Jul-11 11:28N 37°55' E 023°05'0 0.0
2018-Jul-11 10:58N 37°55' E 023°05'0 0.0
2018-Jul-11 10:28N 37°55' E 023°05'0 0.0
2018-Jul-11 09:58N 37°55' E 023°05'0 0.0
2018-Jul-11 09:28N 37°55' E 023°05'0 0.0
2018-Jul-11 08:58N 37°55' E 023°05'0 0.0
2018-Jul-11 08:28N 37°55' E 023°05'0 0.0
2018-Jul-11 07:58N 37°55' E 023°05'0 0.0
2018-Jul-11 07:28N 37°55' E 023°05'0 0.0
2018-Jul-11 06:58N 37°55' E 023°05'0 0.0
2018-Jul-11 06:28N 37°55' E 023°05'0 0.0
2018-Jul-11 05:58N 37°55' E 023°05'0 0.0
2018-Jul-11 05:28N 37°55' E 023°05'0 0.0
2018-Jul-11 04:58N 37°55' E 023°05'0 0.0
2018-Jul-11 04:28N 37°55' E 023°05'0 0.0
2018-Jul-11 03:58N 37°55' E 023°05'0 0.0
2018-Jul-11 03:28N 37°55' E 023°05'0 0.0
2018-Jul-11 02:58N 37°55' E 023°05'0 0.0
2018-Jul-11 02:28N 37°55' E 023°05'0 0.0
2018-Jul-11 01:58N 37°55' E 023°05'0 0.0
2018-Jul-11 01:30N 37°55' E 023°05'0 1.0
2018-Jul-11 01:00N 37°55' E 023°06'0 0.1
2018-Jul-11 00:30N 37°55' E 023°06'0 0.1
2018-Jul-11 00:00N 37°55' E 023°06'0 0.0
2018-Jul-10 23:30N 37°55' E 023°06'0 0.1
2018-Jul-10 23:00N 37°55' E 023°06'0 0.0
2018-Jul-10 22:30N 37°55' E 023°06'0 0.0
2018-Jul-10 22:00N 37°55' E 023°06'0 0.0
2018-Jul-10 21:30N 37°55' E 023°06'0 0.0
2018-Jul-10 21:00N 37°55' E 023°06'0 0.0
2018-Jul-10 20:30N 37°55' E 023°06'0 0.0
2018-Jul-10 20:00N 37°55' E 023°06'0 0.0
2018-Jul-10 19:30N 37°55' E 023°06'0 0.0
2018-Jul-10 19:00N 37°55' E 023°06'0 0.0
2018-Jul-10 18:30N 37°55' E 023°06'0 0.0
2018-Jul-10 18:00N 37°55' E 023°06'0 0.0
2018-Jul-10 17:30N 37°55' E 023°06'0 0.0
2018-Jul-10 17:00N 37°55' E 023°06'0 0.3
2018-Jul-10 16:30N 37°55' E 023°06'0 0.1
2018-Jul-10 16:00N 37°55' E 023°06'0 0.0
2018-Jul-10 15:30N 37°55' E 023°06'0 0.1
2018-Jul-10 15:00N 37°55' E 023°06'0 0.0
2018-Jul-10 14:30N 37°55' E 023°06'0 0.0
2018-Jul-10 14:00N 37°55' E 023°06'0 0.1
2018-Jul-10 13:30N 37°55' E 023°06'0 0.0
2018-Jul-10 13:00N 37°55' E 023°06'0 0.0
2018-Jul-10 12:30N 37°55' E 023°06'0 0.1
2018-Jul-10 12:00N 37°55' E 023°06'0 0.1
2018-Jul-10 11:30N 37°55' E 023°06'0 0.0
2018-Jul-10 11:00N 37°55' E 023°06'0 0.0
2018-Jul-10 10:30N 37°55' E 023°06'0 0.0
2018-Jul-10 10:00N 37°55' E 023°06'0 0.0
2018-Jul-10 09:30N 37°55' E 023°06'0 0.0
2018-Jul-10 09:00N 37°55' E 023°06'2 3.8
2018-Jul-10 08:30N 37°54' E 023°08'5 9.7
2018-Jul-10 08:00N 37°53' E 023°14'510.4
2018-Jul-10 07:30N 37°53' E 023°21'510.8
2018-Jul-10 07:00N 37°51' E 023°28'510.7
2018-Jul-10 06:30N 37°51' E 023°34'4 8.9
2018-Jul-10 06:00N 37°49' E 023°39'510.7
2018-Jul-10 05:30N 37°45' E 023°43'5010.1
2018-Jul-10 00:32N 37°33' E 024°44'010.3
2018-Jul-10 00:30N 37°33' E 024°44'510.1
2018-Jul-10 00:00N 37°33' E 024°51'610.5
2018-Jul-09 23:28N 37°32' E 024°58'510.4
2018-Jul-09 23:00N 37°31' E 025°04'510.5
2018-Jul-09 22:30N 37°30' E 025°10'510.0
2018-Jul-09 22:00N 37°31' E 025°16'510.2
2018-Jul-09 21:30N 37°32' E 025°23'5 9.7
2018-Jul-09 21:00N 37°34' E 025°29'5 9.8
2018-Jul-09 20:30N 37°35' E 025°34'610.0
2018-Jul-09 19:57N 37°37' E 025°41'  

Dump ship's entire track history